Time;durP1;ratioP1;P1;durP2;ratioP2;P2;SDS_P1;SDS_P2;PMS_P1;PMS_P2;Temp;Humidity;BMP_temperature;BMP_pressure;BME280_temperature;BME280_humidity;BME280_pressure;Samples;Min_cycle;Max_cycle;Signal;HPM_P1;HPM_P2
2022/01/31 00:02:04;;;;;;;24.37;6.03;;;;;;;;;;5049695;28;20401;-69
2022/01/31 00:04:29;;;;;;;14.67;5.87;;;;;;;;;;5047228;28;20618;-68
2022/01/31 00:06:56;;;;;;;14.57;4.80;;;;;;;;;;5050131;28;20200;-69
2022/01/31 00:09:22;;;;;;;15.07;5.93;;;;;;;;;;5046504;28;20177;-69
2022/01/31 00:12:23;;;;;;;14.40;5.20;;;;;;;;;;5030787;28;20181;-68
2022/01/31 00:17:05;;;;;;;16.40;5.47;;;;;;;;;;5048022;28;20249;-68
2022/01/31 00:19:30;;;;;;;17.47;6.17;;;;;;;;;;5048490;28;20592;-68
2022/01/31 00:21:56;;;;;;;16.97;6.97;;;;;;;;;;5047574;28;20197;-69
2022/01/31 00:24:21;;;;;;;28.03;6.73;;;;;;;;;;5048901;28;20262;-70
2022/01/31 00:26:46;;;;;;;16.60;5.73;;;;;;;;;;5049464;28;20583;-69
2022/01/31 00:29:12;;;;;;;18.33;6.37;;;;;;;;;;5044163;28;20264;-69
2022/01/31 00:31:37;;;;;;;19.83;6.43;;;;;;;;;;5047593;28;20307;-69
2022/01/31 00:34:02;;;;;;;19.97;6.67;;;;;;;;;;5027490;28;20197;-69
2022/01/31 00:36:27;;;;;;;17.87;6.47;;;;;;;;;;5041353;28;20200;-69
2022/01/31 00:38:52;;;;;;;14.27;6.03;;;;;;;;;;5044914;28;20264;-69
2022/01/31 00:41:18;;;;;;;14.30;6.13;;;;;;;;;;5049947;28;20333;-69
2022/01/31 00:43:54;;;;;;;16.87;6.53;;;;;;;;;;5039272;28;20220;-70
2022/01/31 00:46:25;;;;;;;22.40;8.17;;;;;;;;;;5039984;28;20197;-70
2022/01/31 00:48:50;;;;;;;16.03;7.60;;;;;;;;;;5036808;28;20174;-69
2022/01/31 00:51:16;;;;;;;21.47;7.97;;;;;;;;;;5028861;28;20631;-70
2022/01/31 00:53:43;;;;;;;21.17;8.43;;;;;;;;;;5046590;28;20196;-70
2022/01/31 00:56:08;;;;;;;17.27;9.27;;;;;;;;;;5048536;28;20266;-70
2022/01/31 00:58:33;;;;;;;17.07;8.00;;;;;;;;;;5048620;28;20260;-69
2022/01/31 01:00:58;;;;;;;17.43;8.80;;;;;;;;;;5047715;28;20204;-70
2022/01/31 01:03:23;;;;;;;18.43;8.50;;;;;;;;;;5046002;28;20274;-70
2022/01/31 01:05:49;;;;;;;21.17;8.87;;;;;;;;;;5037218;28;20240;-70
2022/01/31 01:08:14;;;;;;;24.50;8.93;;;;;;;;;;5036839;28;20522;-70
2022/01/31 01:10:39;;;;;;;27.83;10.30;;;;;;;;;;5046866;28;20177;-70
2022/01/31 01:13:04;;;;;;;23.97;10.20;;;;;;;;;;5049389;28;20186;-71
2022/01/31 01:15:30;;;;;;;23.23;8.03;;;;;;;;;;5049091;28;20177;-68
2022/01/31 01:17:55;;;;;;;22.77;10.77;;;;;;;;;;5049443;28;20203;-69
2022/01/31 01:20:20;;;;;;;15.17;7.23;;;;;;;;;;5044317;28;20256;-68
2022/01/31 01:22:45;;;;;;;24.17;9.70;;;;;;;;;;5031018;28;20181;-69
2022/01/31 01:25:12;;;;;;;16.20;7.80;;;;;;;;;;5047277;28;20213;-69
2022/01/31 01:27:38;;;;;;;16.23;8.53;;;;;;;;;;5036296;28;20282;-69
2022/01/31 01:30:04;;;;;;;17.90;8.20;;;;;;;;;;5045282;28;20243;-70
2022/01/31 01:32:33;;;;;;;16.53;8.03;;;;;;;;;;5049089;28;20170;-69
2022/01/31 01:35:03;;;;;;;14.73;7.60;;;;;;;;;;5049415;28;20620;-70
2022/01/31 01:37:28;;;;;;;12.33;7.20;;;;;;;;;;5039571;28;20182;-68
2022/01/31 01:39:53;;;;;;;13.83;7.00;;;;;;;;;;5036437;28;20178;-69
2022/01/31 01:42:18;;;;;;;16.53;7.20;;;;;;;;;;5037749;28;20534;-69
2022/01/31 01:44:48;;;;;;;15.50;7.03;;;;;;;;;;5048793;28;20333;-69
2022/01/31 01:47:21;;;;;;;17.97;7.60;;;;;;;;;;5049566;28;20588;-69
2022/01/31 01:49:46;;;;;;;12.80;6.23;;;;;;;;;;5044951;28;20185;-69
2022/01/31 01:52:12;;;;;;;12.43;5.10;;;;;;;;;;5053659;28;20556;-69
2022/01/31 01:54:37;;;;;;;16.13;7.27;;;;;;;;;;5054540;28;20186;-69
2022/01/31 01:57:03;;;;;;;10.57;5.40;;;;;;;;;;5053737;28;20184;-69
2022/01/31 01:59:29;;;;;;;12.23;5.40;;;;;;;;;;5048614;28;20265;-69
2022/01/31 02:01:54;;;;;;;11.17;5.43;;;;;;;;;;5038868;28;20188;-69
2022/01/31 02:04:19;;;;;;;12.43;5.80;;;;;;;;;;5046011;28;20266;-69
2022/01/31 02:06:45;;;;;;;14.57;4.97;;;;;;;;;;5049243;28;20203;-68
2022/01/31 02:09:10;;;;;;;12.63;4.67;;;;;;;;;;5051955;28;20223;-69
2022/01/31 02:11:35;;;;;;;11.20;4.70;;;;;;;;;;5051674;28;20251;-70
2022/01/31 02:14:01;;;;;;;10.13;5.33;;;;;;;;;;5050753;28;20704;-69
2022/01/31 02:16:26;;;;;;;14.57;6.93;;;;;;;;;;5050702;28;20186;-70
2022/01/31 02:18:53;;;;;;;11.63;5.97;;;;;;;;;;5034923;28;20245;-69
2022/01/31 02:21:18;;;;;;;10.57;5.50;;;;;;;;;;5053022;28;20173;-69
2022/01/31 02:23:44;;;;;;;14.57;4.93;;;;;;;;;;5051155;28;20205;-70
2022/01/31 02:26:09;;;;;;;18.30;5.60;;;;;;;;;;5049325;28;20304;-69
2022/01/31 02:28:35;;;;;;;14.77;4.27;;;;;;;;;;5050444;28;20178;-69
2022/01/31 02:31:01;;;;;;;16.70;5.57;;;;;;;;;;5051645;28;20177;-69
2022/01/31 02:33:27;;;;;;;23.10;3.87;;;;;;;;;;5050129;28;20721;-69
2022/01/31 02:35:54;;;;;;;10.77;3.30;;;;;;;;;;5051170;28;20178;-69
2022/01/31 02:38:19;;;;;;;15.27;3.97;;;;;;;;;;5042954;28;20261;-69
2022/01/31 02:40:48;;;;;;;12.57;3.40;;;;;;;;;;5042737;28;20656;-69
2022/01/31 02:43:21;;;;;;;12.87;2.97;;;;;;;;;;5045292;28;20206;-69
2022/01/31 02:45:46;;;;;;;12.53;3.83;;;;;;;;;;5040371;28;20189;-70
2022/01/31 02:48:13;;;;;;;13.27;3.70;;;;;;;;;;5036720;28;20662;-70
2022/01/31 02:50:42;;;;;;;11.83;2.83;;;;;;;;;;5021417;28;20181;-71
2022/01/31 02:53:12;;;;;;;26.30;4.40;;;;;;;;;;5044876;28;20247;-68
2022/01/31 02:55:42;;;;;;;16.20;4.77;;;;;;;;;;5029763;28;20226;-70
2022/01/31 02:58:07;;;;;;;11.93;3.30;;;;;;;;;;5047631;28;20663;-69
2022/01/31 03:00:33;;;;;;;13.97;3.63;;;;;;;;;;5048630;28;20181;-71
2022/01/31 03:02:58;;;;;;;15.10;3.53;;;;;;;;;;5049891;28;20205;-69
2022/01/31 03:05:23;;;;;;;14.83;3.67;;;;;;;;;;5050529;28;20177;-69
2022/01/31 03:07:49;;;;;;;12.63;3.23;;;;;;;;;;5040809;28;20748;-69
2022/01/31 03:10:14;;;;;;;10.27;2.93;;;;;;;;;;5043143;28;20182;-69
2022/01/31 03:12:39;;;;;;;15.20;2.90;;;;;;;;;;5048529;28;20170;-69
2022/01/31 03:15:04;;;;;;;17.47;3.17;;;;;;;;;;5047401;28;20188;-69
2022/01/31 03:17:29;;;;;;;10.83;2.37;;;;;;;;;;5049668;28;20189;-69
2022/01/31 03:19:55;;;;;;;12.00;2.90;;;;;;;;;;5048891;28;20583;-69
2022/01/31 03:22:21;;;;;;;11.63;2.50;;;;;;;;;;5050957;28;20705;-68
2022/01/31 03:24:47;;;;;;;12.37;4.23;;;;;;;;;;5042105;28;20229;-68
2022/01/31 03:27:13;;;;;;;9.43;3.37;;;;;;;;;;5033931;28;20300;-69
2022/01/31 03:29:38;;;;;;;12.00;2.20;;;;;;;;;;5042519;28;20181;-69
2022/01/31 03:32:03;;;;;;;16.00;3.30;;;;;;;;;;5049333;28;20186;-69
2022/01/31 03:34:28;;;;;;;9.40;3.70;;;;;;;;;;5048426;28;20706;-68
2022/01/31 03:36:53;;;;;;;12.20;2.33;;;;;;;;;;5032762;28;20260;-69
2022/01/31 03:39:19;;;;;;;12.97;2.83;;;;;;;;;;5046174;28;20591;-69
2022/01/31 03:41:44;;;;;;;8.43;2.60;;;;;;;;;;5048760;28;20242;-69
2022/01/31 03:44:09;;;;;;;8.87;2.20;;;;;;;;;;5047008;28;20233;-71
2022/01/31 03:46:35;;;;;;;11.33;2.60;;;;;;;;;;5050727;28;20630;-70
2022/01/31 03:49:00;;;;;;;9.40;2.33;;;;;;;;;;5049749;28;20177;-68
2022/01/31 03:51:25;;;;;;;14.53;2.50;;;;;;;;;;5049634;28;20193;-69
2022/01/31 03:53:51;;;;;;;10.50;2.97;;;;;;;;;;5040314;28;20696;-68
2022/01/31 03:56:16;;;;;;;13.30;2.60;;;;;;;;;;5039258;28;20190;-68
2022/01/31 03:58:41;;;;;;;13.77;2.30;;;;;;;;;;5040999;28;20702;-69
2022/01/31 04:01:06;;;;;;;9.27;3.20;;;;;;;;;;5040355;28;20179;-68
2022/01/31 04:03:31;;;;;;;14.47;2.73;;;;;;;;;;5047167;28;20205;-69
2022/01/31 04:05:57;;;;;;;15.57;2.87;;;;;;;;;;5048558;28;20263;-68
2022/01/31 04:08:22;;;;;;;13.43;2.90;;;;;;;;;;5031008;28;20170;-68
2022/01/31 04:10:47;;;;;;;8.57;2.23;;;;;;;;;;5044906;28;20209;-69
2022/01/31 04:13:16;;;;;;;10.73;2.60;;;;;;;;;;5048492;28;20197;-68
2022/01/31 04:15:41;;;;;;;10.53;2.30;;;;;;;;;;5049020;28;20189;-68
2022/01/31 04:18:06;;;;;;;10.10;3.67;;;;;;;;;;5049082;28;20208;-69
2022/01/31 04:20:32;;;;;;;9.67;2.13;;;;;;;;;;5047582;28;20235;-68
2022/01/31 04:23:06;;;;;;;12.93;4.13;;;;;;;;;;5047414;28;20194;-69
2022/01/31 04:25:43;;;;;;;11.73;2.30;;;;;;;;;;5033811;28;20208;-69
2022/01/31 04:28:18;;;;;;;9.40;2.43;;;;;;;;;;5036283;28;20185;-68
2022/01/31 04:30:51;;;;;;;8.27;2.60;;;;;;;;;;5019901;28;20611;-68
2022/01/31 04:33:16;;;;;;;11.20;2.87;;;;;;;;;;5043796;28;20670;-68
2022/01/31 04:35:41;;;;;;;9.87;2.43;;;;;;;;;;5049033;28;20189;-69
2022/01/31 04:38:06;;;;;;;9.87;3.27;;;;;;;;;;5037611;28;20181;-68
2022/01/31 04:40:31;;;;;;;12.90;3.20;;;;;;;;;;5031930;28;20193;-68
2022/01/31 04:42:57;;;;;;;16.10;2.60;;;;;;;;;;5035696;28;20198;-68
2022/01/31 04:45:22;;;;;;;7.07;2.23;;;;;;;;;;5017119;28;20341;-69
2022/01/31 04:47:47;;;;;;;16.30;3.27;;;;;;;;;;5038290;28;20208;-68
2022/01/31 04:50:12;;;;;;;3.57;1.37;;;;;;;;;;5054082;28;20177;-67
2022/01/31 04:52:41;;;;;;;7.07;2.40;;;;;;;;;;5036499;28;20192;-68
2022/01/31 04:55:07;;;;;;;8.70;2.10;;;;;;;;;;5011141;28;20302;-68
2022/01/31 04:57:32;;;;;;;10.10;2.60;;;;;;;;;;5034314;28;20260;-68
2022/01/31 04:59:57;;;;;;;7.67;2.43;;;;;;;;;;5033922;28;20182;-68
2022/01/31 05:02:24;;;;;;;6.40;2.03;;;;;;;;;;5030869;28;20296;-69
2022/01/31 05:04:49;;;;;;;18.30;2.93;;;;;;;;;;5026249;28;20654;-69
2022/01/31 05:07:14;;;;;;;8.43;2.37;;;;;;;;;;5035515;28;20256;-69
2022/01/31 05:09:39;;;;;;;15.97;3.53;;;;;;;;;;5034005;28;20176;-68
2022/01/31 05:12:05;;;;;;;5.40;1.90;;;;;;;;;;5036332;28;20177;-68
2022/01/31 05:14:30;;;;;;;6.23;1.83;;;;;;;;;;5037212;28;20200;-69
2022/01/31 05:16:55;;;;;;;2.60;1.40;;;;;;;;;;5033924;28;20182;-68
2022/01/31 05:19:20;;;;;;;4.20;1.33;;;;;;;;;;5029148;28;20178;-69
2022/01/31 05:21:46;;;;;;;4.10;1.30;;;;;;;;;;5033245;28;20173;-69
2022/01/31 05:24:11;;;;;;;13.57;1.77;;;;;;;;;;5037008;28;20272;-69
2022/01/31 05:26:36;;;;;;;13.57;2.50;;;;;;;;;;5028758;28;20224;-69
2022/01/31 05:29:02;;;;;;;9.47;2.20;;;;;;;;;;5037320;28;20364;-69
2022/01/31 05:31:27;;;;;;;10.50;3.10;;;;;;;;;;5035289;28;20174;-69
2022/01/31 05:33:52;;;;;;;12.43;3.40;;;;;;;;;;5034857;28;20190;-67
2022/01/31 05:36:17;;;;;;;11.90;2.70;;;;;;;;;;5031924;28;20619;-70
2022/01/31 05:38:44;;;;;;;14.50;3.33;;;;;;;;;;5038665;28;20171;-69
2022/01/31 05:41:17;;;;;;;19.67;3.77;;;;;;;;;;5016362;28;20182;-68
2022/01/31 05:43:42;;;;;;;13.57;3.33;;;;;;;;;;5034023;28;20207;-69
2022/01/31 05:46:07;;;;;;;8.37;2.57;;;;;;;;;;5039587;28;20649;-68
2022/01/31 05:48:32;;;;;;;16.00;2.90;;;;;;;;;;5042630;28;20273;-70
2022/01/31 05:50:57;;;;;;;10.30;3.17;;;;;;;;;;5035862;28;20178;-67
2022/01/31 05:53:23;;;;;;;12.63;2.77;;;;;;;;;;5038600;28;20635;-68
2022/01/31 05:55:48;;;;;;;12.00;2.83;;;;;;;;;;5036484;28;20670;-69
2022/01/31 05:58:14;;;;;;;14.53;3.50;;;;;;;;;;5025160;28;20189;-69
2022/01/31 06:00:39;;;;;;;15.67;3.70;;;;;;;;;;5028223;28;20264;-69
2022/01/31 06:03:04;;;;;;;16.80;4.40;;;;;;;;;;5040759;28;20220;-68
2022/01/31 06:05:29;;;;;;;17.27;3.10;;;;;;;;;;5035654;28;20232;-69
2022/01/31 06:07:55;;;;;;;12.47;3.30;;;;;;;;;;5034876;28;21707;-68
2022/01/31 06:10:23;;;;;;;18.67;3.93;;;;;;;;;;5038303;28;20628;-68
2022/01/31 06:12:48;;;;;;;15.53;3.57;;;;;;;;;;5031318;28;20607;-69
2022/01/31 06:15:13;;;;;;;13.23;3.30;;;;;;;;;;5015311;28;20177;-68
2022/01/31 06:17:39;;;;;;;16.83;3.53;;;;;;;;;;5036727;28;20631;-69
2022/01/31 06:20:05;;;;;;;12.13;2.90;;;;;;;;;;5033163;28;20185;-69
2022/01/31 06:22:30;;;;;;;19.37;3.57;;;;;;;;;;5039504;28;20257;-69
2022/01/31 06:24:55;;;;;;;15.97;3.60;;;;;;;;;;5046041;28;20541;-69
2022/01/31 06:27:20;;;;;;;17.63;3.40;;;;;;;;;;5038576;28;20312;-69
2022/01/31 06:29:47;;;;;;;21.03;3.17;;;;;;;;;;5040100;28;20212;-68
2022/01/31 06:32:12;;;;;;;14.83;2.80;;;;;;;;;;5018555;28;20543;-70
2022/01/31 06:34:37;;;;;;;15.07;2.93;;;;;;;;;;5034514;28;20630;-68
2022/01/31 06:37:04;;;;;;;18.93;3.03;;;;;;;;;;5047003;28;20188;-70
2022/01/31 06:39:29;;;;;;;15.67;2.60;;;;;;;;;;5048920;28;20170;-69
2022/01/31 06:41:54;;;;;;;21.40;5.07;;;;;;;;;;5035276;28;20197;-69
2022/01/31 06:44:20;;;;;;;24.27;3.67;;;;;;;;;;5031562;28;20203;-69
2022/01/31 06:46:45;;;;;;;13.63;3.00;;;;;;;;;;5031919;28;20224;-69
2022/01/31 06:49:10;;;;;;;19.70;3.40;;;;;;;;;;5041344;28;20274;-69
2022/01/31 06:51:35;;;;;;;5.77;2.00;;;;;;;;;;5036820;28;20185;-71
2022/01/31 06:54:01;;;;;;;6.67;2.93;;;;;;;;;;5038785;28;20552;-68
2022/01/31 06:56:30;;;;;;;12.73;2.77;;;;;;;;;;5048570;28;20568;-69
2022/01/31 06:58:56;;;;;;;19.00;4.43;;;;;;;;;;5033328;28;20210;-69
2022/01/31 07:01:24;;;;;;;16.13;2.67;;;;;;;;;;5041420;28;20190;-69
2022/01/31 07:03:49;;;;;;;17.77;4.23;;;;;;;;;;5042638;22;20626;-71
2022/01/31 07:06:15;;;;;;;11.60;2.77;;;;;;;;;;5024767;28;20204;-70
2022/01/31 07:08:40;;;;;;;20.10;3.43;;;;;;;;;;5029481;28;20236;-71
2022/01/31 07:11:05;;;;;;;14.53;2.67;;;;;;;;;;5031734;28;20683;-70
2022/01/31 07:15:55;;;;;;;12.98;2.45;;;;;;;;;;5016948;28;20200;-69
2022/01/31 07:18:20;;;;;;;21.13;4.17;;;;;;;;;;5014730;28;20492;-71
2022/01/31 07:20:50;;;;;;;15.27;3.93;;;;;;;;;;5018387;28;20182;-70
2022/01/31 07:26:07;;;;;;;17.93;3.33;;;;;;;;;;5009199;28;20225;-71
2022/01/31 07:28:32;;;;;;;20.27;3.53;;;;;;;;;;5020148;28;20174;-70
2022/01/31 07:30:57;;;;;;;21.10;4.97;;;;;;;;;;5019344;28;20224;-70
2022/01/31 07:33:23;;;;;;;19.47;3.20;;;;;;;;;;5024666;28;20280;-70
2022/01/31 07:35:49;;;;;;;14.37;3.37;;;;;;;;;;5015320;28;20202;-71
2022/01/31 07:38:15;;;;;;;17.20;4.13;;;;;;;;;;5018961;28;20185;-71
2022/01/31 07:40:40;;;;;;;16.17;2.83;;;;;;;;;;5013133;28;20614;-71
2022/01/31 07:43:06;;;;;;;12.23;4.37;;;;;;;;;;5025136;28;20182;-70
2022/01/31 07:45:31;;;;;;;18.27;3.50;;;;;;;;;;5002895;28;20258;-70
2022/01/31 07:47:56;;;;;;;14.77;4.00;;;;;;;;;;5023272;28;20202;-70
2022/01/31 07:50:21;;;;;;;10.13;2.97;;;;;;;;;;5020732;28;20177;-70
2022/01/31 07:52:47;;;;;;;15.70;3.10;;;;;;;;;;5030658;28;20196;-71
2022/01/31 07:55:12;;;;;;;17.10;3.57;;;;;;;;;;5016827;28;20599;-70
2022/01/31 07:57:38;;;;;;;17.87;3.40;;;;;;;;;;5022271;28;20264;-70
2022/01/31 08:00:04;;;;;;;19.43;4.07;;;;;;;;;;4999816;28;20598;-70
2022/01/31 08:02:29;;;;;;;28.10;4.33;;;;;;;;;;5018964;28;20182;-71
2022/01/31 08:04:55;;;;;;;23.57;5.30;;;;;;;;;;5014558;28;20210;-70
2022/01/31 08:07:21;;;;;;;30.70;4.13;;;;;;;;;;5013422;28;20653;-70
2022/01/31 08:09:46;;;;;;;24.03;5.10;;;;;;;;;;5016571;28;20277;-70
2022/01/31 08:12:11;;;;;;;18.93;4.07;;;;;;;;;;5017429;28;20357;-70
2022/01/31 08:14:37;;;;;;;28.20;5.00;;;;;;;;;;5020374;28;20206;-70
2022/01/31 08:17:02;;;;;;;21.30;4.70;;;;;;;;;;5014741;28;20277;-70
2022/01/31 08:19:27;;;;;;;21.63;4.40;;;;;;;;;;5029396;28;20179;-71
2022/01/31 08:21:55;;;;;;;30.33;4.80;;;;;;;;;;5022114;28;20178;-71
2022/01/31 08:24:20;;;;;;;19.77;4.00;;;;;;;;;;5018082;28;20260;-69
2022/01/31 08:26:45;;;;;;;22.60;3.83;;;;;;;;;;5025523;28;20579;-69
2022/01/31 08:29:22;;;;;;;18.77;5.27;;;;;;;;;;5008710;28;20174;-70
2022/01/31 08:31:48;;;;;;;22.47;3.40;;;;;;;;;;5026336;28;20757;-70
2022/01/31 08:36:40;;;;;;;16.83;4.90;;;;;;;;;;5017908;28;20448;-70
2022/01/31 08:39:17;;;;;;;18.93;3.63;;;;;;;;;;5026148;28;20182;-70
2022/01/31 08:41:43;;;;;;;33.23;5.80;;;;;;;;;;5025917;28;20189;-70
2022/01/31 08:44:10;;;;;;;24.53;4.13;;;;;;;;;;5028567;28;20198;-71
2022/01/31 08:46:39;;;;;;;19.03;5.17;;;;;;;;;;5027672;28;20230;-71
2022/01/31 08:49:04;;;;;;;22.37;4.73;;;;;;;;;;5012885;28;20193;-70
2022/01/31 08:51:29;;;;;;;28.70;5.57;;;;;;;;;;5025542;28;20573;-70
2022/01/31 08:53:54;;;;;;;20.93;4.20;;;;;;;;;;5026421;28;20197;-71
2022/01/31 08:56:19;;;;;;;19.50;5.27;;;;;;;;;;5028210;28;20186;-71
2022/01/31 08:58:48;;;;;;;28.37;4.93;;;;;;;;;;5021218;28;20197;-70
2022/01/31 09:01:21;;;;;;;20.27;5.43;;;;;;;;;;5009597;28;20317;-71
2022/01/31 09:06:19;;;;;;;25.57;4.30;;;;;;;;;;5027614;28;20263;-71
2022/01/31 09:08:45;;;;;;;21.43;4.67;;;;;;;;;;5023523;28;20174;-71
2022/01/31 09:11:10;;;;;;;18.60;4.40;;;;;;;;;;5024654;28;20166;-70
2022/01/31 09:13:36;;;;;;;24.13;5.23;;;;;;;;;;5024927;28;20206;-69
2022/01/31 09:16:02;;;;;;;25.67;5.60;;;;;;;;;;5033212;28;20269;-71
2022/01/31 09:18:28;;;;;;;18.07;4.27;;;;;;;;;;5030206;28;20181;-70
2022/01/31 09:20:53;;;;;;;20.93;5.37;;;;;;;;;;5016670;28;20178;-71
2022/01/31 09:23:18;;;;;;;24.17;5.70;;;;;;;;;;5030993;28;20202;-70
2022/01/31 09:25:45;;;;;;;18.43;4.63;;;;;;;;;;5032918;28;20212;-71
2022/01/31 09:28:11;;;;;;;29.50;5.20;;;;;;;;;;5029973;28;20565;-70
2022/01/31 09:30:37;;;;;;;25.03;6.03;;;;;;;;;;5034636;28;20178;-70
2022/01/31 09:33:02;;;;;;;16.97;5.43;;;;;;;;;;5024825;28;20178;-71
2022/01/31 09:35:28;;;;;;;24.40;5.57;;;;;;;;;;5029454;28;20206;-70
2022/01/31 09:37:53;;;;;;;33.03;7.07;;;;;;;;;;5032136;28;20600;-71
2022/01/31 09:40:21;;;;;;;29.33;6.93;;;;;;;;;;5027984;28;20542;-68
2022/01/31 09:43:08;;;;;;;28.97;6.67;;;;;;;;;;5013081;28;20183;-71
2022/01/31 09:46:34;;;;;;;34.63;5.90;;;;;;;;;;5014189;28;20406;-71
2022/01/31 09:48:40;;;;;;;34.97;6.93;;;;;;;;;;5014387;28;20267;-71
2022/01/31 09:51:16;;;;;;;32.93;6.60;;;;;;;;;;5030921;28;20640;-70
2022/01/31 09:53:42;;;;;;;39.97;8.10;;;;;;;;;;5033568;28;20201;-71
2022/01/31 09:56:10;;;;;;;33.00;6.43;;;;;;;;;;5031771;28;20206;-72
2022/01/31 09:58:35;;;;;;;28.07;8.30;;;;;;;;;;5030918;28;20257;-70
2022/01/31 10:01:05;;;;;;;33.30;5.53;;;;;;;;;;5032142;28;20732;-72
2022/01/31 10:03:30;;;;;;;28.50;6.67;;;;;;;;;;5014073;28;20210;-71
2022/01/31 10:05:55;;;;;;;30.10;6.57;;;;;;;;;;5029832;28;20539;-70
2022/01/31 10:08:20;;;;;;;46.70;7.60;;;;;;;;;;5031015;28;20257;-70
2022/01/31 10:10:48;;;;;;;29.13;8.17;;;;;;;;;;5030390;28;20201;-70
2022/01/31 10:16:30;;;;;;;40.77;7.53;;;;;;;;;;5031245;28;20213;-70
2022/01/31 10:19:02;;;;;;;34.10;6.73;;;;;;;;;;5011868;28;20186;-70
2022/01/31 10:21:27;;;;;;;30.17;5.80;;;;;;;;;;5031793;28;20194;-71
2022/01/31 10:23:52;;;;;;;23.70;7.27;;;;;;;;;;5030197;28;20916;-70
2022/01/31 10:26:35;;;;;;;33.70;6.40;;;;;;;;;;5030796;28;20212;-71
2022/01/31 10:29:10;;;;;;;34.13;5.83;;;;;;;;;;5029886;28;20178;-69
2022/01/31 10:31:36;;;;;;;31.57;4.73;;;;;;;;;;5029890;28;20505;-70
2022/01/31 10:34:14;;;;;;;20.53;5.50;;;;;;;;;;5032440;28;20269;-70
2022/01/31 10:36:39;;;;;;;29.37;5.73;;;;;;;;;;5029654;28;20736;-70
2022/01/31 10:39:13;;;;;;;23.93;5.20;;;;;;;;;;5028288;28;20247;-69
2022/01/31 10:45:21;;;;;;;27.33;5.77;;;;;;;;;;5018363;28;20267;-69
2022/01/31 10:52:55;;;;;;;27.37;6.70;;;;;;;;;;5028621;28;20662;-71
2022/01/31 10:55:20;;;;;;;29.07;5.83;;;;;;;;;;5014199;28;20198;-70
2022/01/31 10:58:00;;;;;;;33.37;6.17;;;;;;;;;;5028809;28;20205;-71
2022/01/31 11:00:31;;;;;;;25.67;6.20;;;;;;;;;;5029617;28;20189;-70
2022/01/31 11:02:56;;;;;;;27.80;4.90;;;;;;;;;;5012674;28;20182;-71
2022/01/31 11:05:23;;;;;;;28.93;6.10;;;;;;;;;;5031721;28;20225;-70
2022/01/31 11:07:48;;;;;;;39.23;5.87;;;;;;;;;;5027891;28;20205;-70
2022/01/31 11:10:17;;;;;;;33.37;7.60;;;;;;;;;;5032511;28;20178;-70
2022/01/31 11:12:42;;;;;;;27.40;6.10;;;;;;;;;;5030840;28;20232;-70
2022/01/31 11:15:07;;;;;;;30.13;6.53;;;;;;;;;;5026024;28;20287;-70
2022/01/31 11:17:35;;;;;;;34.77;8.87;;;;;;;;;;5026096;28;20209;-70
2022/01/31 11:20:02;;;;;;;38.10;6.07;;;;;;;;;;5026927;28;20181;-69
2022/01/31 11:22:35;;;;;;;44.57;7.83;;;;;;;;;;5027394;28;20678;-71
2022/01/31 11:25:03;;;;;;;28.83;6.73;;;;;;;;;;5026391;28;20280;-71
2022/01/31 11:27:29;;;;;;;31.70;6.40;;;;;;;;;;5029448;28;20213;-70
2022/01/31 11:29:55;;;;;;;37.17;6.83;;;;;;;;;;5028102;28;20178;-70
2022/01/31 11:32:21;;;;;;;28.43;6.50;;;;;;;;;;5012556;28;20552;-71
2022/01/31 11:34:46;;;;;;;23.53;4.87;;;;;;;;;;5028321;28;20194;-70
2022/01/31 11:37:13;;;;;;;40.90;7.53;;;;;;;;;;5027745;28;20629;-70
2022/01/31 11:39:39;;;;;;;28.77;6.07;;;;;;;;;;5029849;28;20210;-71
2022/01/31 11:42:05;;;;;;;33.17;6.70;;;;;;;;;;5026156;28;20269;-71
2022/01/31 11:44:49;;;;;;;33.10;6.03;;;;;;;;;;5020204;28;20296;-70
2022/01/31 11:47:14;;;;;;;30.93;7.20;;;;;;;;;;5012628;28;20320;-70
2022/01/31 11:49:47;;;;;;;38.83;6.57;;;;;;;;;;5027890;28;20690;-71
2022/01/31 11:52:13;;;;;;;33.70;5.60;;;;;;;;;;5031786;28;20569;-70
2022/01/31 11:54:55;;;;;;;28.40;6.47;;;;;;;;;;5029222;28;20202;-70
2022/01/31 11:57:20;;;;;;;25.23;5.70;;;;;;;;;;5030418;28;20265;-71
2022/01/31 11:59:49;;;;;;;28.80;6.15;;;;;;;;;;5031597;28;20261;-70
2022/01/31 12:02:14;;;;;;;33.90;7.00;;;;;;;;;;5032232;28;20527;-71
2022/01/31 12:04:42;;;;;;;37.53;7.30;;;;;;;;;;5028606;28;20267;-71
2022/01/31 12:07:26;;;;;;;24.90;7.37;;;;;;;;;;5030613;28;20257;-70
2022/01/31 12:09:54;;;;;;;33.57;6.57;;;;;;;;;;5030268;28;20591;-71
2022/01/31 12:12:32;;;;;;;29.07;5.43;;;;;;;;;;5025884;28;20182;-70
2022/01/31 12:15:19;;;;;;;37.30;7.13;;;;;;;;;;5024592;28;20583;-70
2022/01/31 12:18:20;;;;;;;36.07;7.27;;;;;;;;;;5008861;28;20190;-70
2022/01/31 12:23:38;;;;;;;26.07;7.47;;;;;;;;;;5017734;28;20312;-71
2022/01/31 12:26:23;;;;;;;25.13;6.00;;;;;;;;;;5031311;28;20257;-71
2022/01/31 12:28:53;;;;;;;36.67;7.47;;;;;;;;;;5025440;28;20186;-70
2022/01/31 12:31:22;;;;;;;33.70;8.03;;;;;;;;;;5029440;28;20236;-71
2022/01/31 12:33:48;;;;;;;34.37;6.77;;;;;;;;;;5028541;28;20202;-69
2022/01/31 12:36:24;;;;;;;39.53;8.83;;;;;;;;;;5010955;28;20182;-71
2022/01/31 12:38:49;;;;;;;31.50;5.93;;;;;;;;;;5012136;28;20186;-70
2022/01/31 12:41:29;;;;;;;34.30;6.83;;;;;;;;;;5026145;28;20247;-70
2022/01/31 12:44:15;;;;;;;37.27;5.87;;;;;;;;;;5022535;28;20281;-70
2022/01/31 12:46:48;;;;;;;49.03;8.97;;;;;;;;;;5026262;28;20787;-71
2022/01/31 12:49:14;;;;;;;42.93;8.70;;;;;;;;;;5015314;28;20170;-70
2022/01/31 12:51:54;;;;;;;43.80;10.20;;;;;;;;;;5027273;28;20269;-70
2022/01/31 12:54:22;;;;;;;42.73;7.10;;;;;;;;;;5028296;28;20225;-70
2022/01/31 12:56:48;;;;;;;35.27;7.87;;;;;;;;;;5023899;28;20188;-70
2022/01/31 12:59:14;;;;;;;50.20;7.50;;;;;;;;;;5028961;28;20261;-71
2022/01/31 13:01:44;;;;;;;34.27;6.90;;;;;;;;;;5025717;28;20182;-70
2022/01/31 13:04:10;;;;;;;41.37;6.90;;;;;;;;;;5038949;22;20229;-69
2022/01/31 13:06:37;;;;;;;33.00;7.13;;;;;;;;;;5010490;28;20324;-69
2022/01/31 13:09:06;;;;;;;37.30;7.47;;;;;;;;;;5027517;28;20634;-68
2022/01/31 13:11:32;;;;;;;33.10;7.03;;;;;;;;;;5023756;28;20182;-69
2022/01/31 13:14:02;;;;;;;37.70;8.10;;;;;;;;;;5023972;28;20202;-69
2022/01/31 13:16:36;;;;;;;31.33;6.40;;;;;;;;;;5025849;28;20731;-68
2022/01/31 13:19:08;;;;;;;36.53;8.23;;;;;;;;;;5022929;28;20190;-69
2022/01/31 13:21:34;;;;;;;32.93;5.57;;;;;;;;;;5028734;28;20178;-69
2022/01/31 13:23:59;;;;;;;23.07;4.77;;;;;;;;;;5023339;28;20213;-68
2022/01/31 13:26:24;;;;;;;24.63;5.83;;;;;;;;;;5026298;28;20206;-69
2022/01/31 13:28:49;;;;;;;30.23;6.13;;;;;;;;;;5029053;28;20190;-69
2022/01/31 13:31:14;;;;;;;27.03;6.60;;;;;;;;;;5006476;28;20269;-68
2022/01/31 13:33:46;;;;;;;33.53;6.50;;;;;;;;;;5009210;28;20277;-68
2022/01/31 13:36:12;;;;;;;33.87;7.90;;;;;;;;;;5029125;28;20175;-68
2022/01/31 13:38:37;;;;;;;38.60;6.40;;;;;;;;;;5009721;28;20178;-68
2022/01/31 13:41:03;;;;;;;35.53;7.20;;;;;;;;;;5007430;28;20265;-68
2022/01/31 13:43:34;;;;;;;35.17;7.10;;;;;;;;;;5028754;28;20182;-68
2022/01/31 13:46:10;;;;;;;40.30;7.63;;;;;;;;;;5029101;28;20320;-68
2022/01/31 13:48:43;;;;;;;34.70;7.60;;;;;;;;;;5028241;28;20178;-69
2022/01/31 13:51:12;;;;;;;35.27;8.87;;;;;;;;;;4994266;28;20671;-69
2022/01/31 13:53:38;;;;;;;37.47;7.30;;;;;;;;;;5019722;28;20280;-68
2022/01/31 13:56:07;;;;;;;41.57;6.70;;;;;;;;;;5022858;28;20195;-68
2022/01/31 13:58:32;;;;;;;35.47;7.67;;;;;;;;;;5028788;28;20526;-68
2022/01/31 14:00:58;;;;;;;40.93;9.10;;;;;;;;;;5028964;28;20189;-69
2022/01/31 14:03:24;;;;;;;33.37;7.10;;;;;;;;;;5031372;28;20189;-68
2022/01/31 14:05:57;;;;;;;21.43;6.77;;;;;;;;;;5023757;28;20182;-68
2022/01/31 14:08:26;;;;;;;36.27;6.13;;;;;;;;;;5008979;28;20671;-68
2022/01/31 14:11:03;;;;;;;37.70;7.37;;;;;;;;;;5026207;28;20209;-67
2022/01/31 14:13:29;;;;;;;39.47;7.37;;;;;;;;;;5013157;28;20185;-68
2022/01/31 14:15:54;;;;;;;33.20;6.27;;;;;;;;;;5006912;28;20175;-69
2022/01/31 14:18:20;;;;;;;40.13;7.37;;;;;;;;;;5026299;28;20256;-69
2022/01/31 14:20:49;;;;;;;45.00;9.87;;;;;;;;;;5027215;28;20197;-68
2022/01/31 14:23:15;;;;;;;38.03;8.73;;;;;;;;;;5028084;28;20265;-69
2022/01/31 14:25:42;;;;;;;47.37;9.93;;;;;;;;;;5031983;28;20319;-68
2022/01/31 14:28:08;;;;;;;43.93;8.37;;;;;;;;;;5012867;28;20296;-69
2022/01/31 14:30:34;;;;;;;37.03;7.23;;;;;;;;;;5046182;28;20621;-70
2022/01/31 14:33:00;;;;;;;45.97;10.00;;;;;;;;;;5040110;28;20174;-69
2022/01/31 14:35:27;;;;;;;34.30;8.33;;;;;;;;;;5029384;28;20198;-69
2022/01/31 14:37:55;;;;;;;31.57;7.37;;;;;;;;;;5030116;28;20190;-68
2022/01/31 14:40:39;;;;;;;35.03;8.03;;;;;;;;;;5026905;28;20206;-68
2022/01/31 14:48:43;;;;;;;31.67;6.53;;;;;;;;;;5028979;28;20213;-69
2022/01/31 14:51:21;;;;;;;43.10;7.77;;;;;;;;;;5031998;28;20170;-69
2022/01/31 14:53:56;;;;;;;33.80;5.53;;;;;;;;;;5006426;28;20229;-70
2022/01/31 14:56:21;;;;;;;24.27;5.63;;;;;;;;;;5030257;28;20244;-70
2022/01/31 14:58:46;;;;;;;31.13;6.13;;;;;;;;;;5029564;28;20182;-70
2022/01/31 15:01:11;;;;;;;31.93;6.93;;;;;;;;;;5028143;28;20186;-70
2022/01/31 15:03:38;;;;;;;30.70;6.73;;;;;;;;;;5025921;28;20214;-67
2022/01/31 15:06:03;;;;;;;27.23;6.47;;;;;;;;;;5031451;28;20635;-70